createdAt,value
2023-01-12T00:00:39.974Z,8.37
2023-01-12T00:01:39.878Z,8.36
2023-01-12T00:02:39.914Z,8.36
2023-01-12T00:03:39.862Z,8.36
2023-01-12T00:04:39.840Z,8.34
2023-01-12T00:05:39.827Z,8.36
2023-01-12T00:06:39.814Z,8.34
2023-01-12T00:07:39.802Z,8.33
2023-01-12T00:08:39.796Z,8.33
2023-01-12T00:09:39.815Z,8.34
2023-01-12T00:10:39.781Z,8.33
2023-01-12T00:11:39.772Z,8.30
2023-01-12T00:12:39.766Z,8.30
2023-01-12T00:13:39.748Z,8.29
2023-01-12T00:14:39.751Z,8.30
2023-01-12T00:15:39.756Z,8.28
2023-01-12T00:16:39.715Z,8.29
2023-01-12T00:17:39.691Z,8.30
2023-01-12T00:18:39.681Z,8.29
2023-01-12T00:19:39.674Z,8.29
2023-01-12T00:20:39.658Z,8.28
2023-01-12T00:21:39.665Z,8.29
2023-01-12T00:22:39.635Z,8.28
2023-01-12T00:23:39.648Z,8.28
2023-01-12T00:24:39.642Z,8.28
2023-01-12T00:25:39.611Z,8.26
2023-01-12T00:26:39.616Z,8.23
2023-01-12T00:27:39.609Z,8.23
2023-01-12T00:28:39.570Z,8.22
2023-01-12T00:29:39.586Z,8.22
2023-01-12T00:30:39.557Z,8.20
2023-01-12T00:31:39.542Z,8.20
2023-01-12T00:32:39.528Z,8.19
2023-01-12T00:33:39.519Z,8.20
2023-01-12T00:34:39.536Z,8.22
2023-01-12T00:35:39.497Z,8.19
2023-01-12T00:36:39.482Z,8.19
2023-01-12T00:37:54.249Z,8.18
2023-01-12T00:38:39.468Z,8.18
2023-01-12T00:39:43.028Z,8.19
2023-01-12T00:40:39.472Z,8.19
2023-01-12T00:41:39.430Z,8.19
2023-01-12T00:42:39.440Z,8.18
2023-01-12T00:43:39.423Z,8.18
2023-01-12T00:44:39.426Z,8.19
2023-01-12T00:45:39.398Z,8.18
2023-01-12T00:46:39.411Z,8.18
2023-01-12T00:47:39.372Z,8.16
2023-01-12T00:48:39.363Z,8.16
2023-01-12T00:49:39.337Z,8.16
2023-01-12T00:50:39.352Z,8.18
2023-01-12T00:51:39.325Z,8.16
2023-01-12T00:52:39.325Z,8.19
2023-01-12T00:53:39.301Z,8.18
2023-01-12T00:54:39.310Z,8.18
2023-01-12T00:55:39.275Z,8.19
2023-01-12T00:56:39.282Z,8.20
2023-01-12T00:57:39.256Z,8.20
2023-01-12T00:58:39.244Z,8.22
2023-01-12T00:59:39.242Z,8.20
2023-01-12T01:00:39.221Z,8.22
2023-01-12T01:01:39.369Z,8.23
2023-01-12T01:02:39.311Z,8.22
2023-01-12T01:03:39.203Z,8.25
2023-01-12T01:04:39.186Z,8.23
2023-01-12T01:05:39.188Z,8.23
2023-01-12T01:06:39.150Z,8.23
2023-01-12T01:07:39.137Z,8.23
2023-01-12T01:08:39.133Z,8.20
2023-01-12T01:09:39.107Z,8.20
2023-01-12T01:10:39.135Z,8.23
2023-01-12T01:11:39.088Z,8.22
2023-01-12T01:12:39.085Z,8.22
2023-01-12T01:13:39.063Z,8.25
2023-01-12T01:14:39.059Z,8.23
2023-01-12T01:15:39.061Z,8.25
2023-01-12T01:16:39.047Z,8.23
2023-01-12T01:17:39.024Z,8.23
2023-01-12T01:18:39.014Z,8.26
2023-01-12T01:19:39.028Z,8.26
2023-01-12T01:20:38.998Z,8.23
2023-01-12T01:21:38.977Z,8.22
2023-01-12T01:22:38.973Z,8.26
2023-01-12T01:23:38.961Z,8.25
2023-01-12T01:24:38.938Z,8.28
2023-01-12T01:25:38.959Z,8.28
2023-01-12T01:26:38.920Z,8.28
2023-01-12T01:27:38.963Z,8.28
2023-01-12T01:28:38.905Z,8.28
2023-01-12T01:29:38.901Z,8.29
2023-01-12T01:30:38.891Z,8.28
2023-01-12T01:31:38.865Z,8.28
2023-01-12T01:32:38.868Z,8.29
2023-01-12T01:33:38.856Z,8.33
2023-01-12T01:34:38.829Z,8.30
2023-01-12T01:35:38.820Z,8.33
2023-01-12T01:36:38.813Z,8.34
2023-01-12T01:37:38.806Z,8.36
2023-01-12T01:38:38.807Z,8.36
2023-01-12T01:39:38.788Z,8.36
2023-01-12T01:40:38.773Z,8.36
2023-01-12T01:41:38.776Z,8.36
2023-01-12T01:42:38.754Z,8.36
2023-01-12T01:43:38.766Z,8.36
2023-01-12T01:44:38.749Z,8.36
2023-01-12T01:45:38.740Z,8.37
2023-01-12T01:47:49.092Z,8.40
2023-01-12T01:48:50.083Z,8.38
2023-01-12T01:49:50.080Z,8.38
2023-01-12T01:50:50.059Z,8.38
2023-01-12T01:51:50.064Z,8.40
2023-01-12T01:52:50.036Z,8.40
2023-01-12T01:53:50.048Z,8.41
2023-01-12T01:54:50.027Z,8.43
2023-01-12T01:55:50.034Z,8.44
2023-01-12T01:56:50.029Z,8.43
2023-01-12T01:57:49.985Z,8.44
2023-01-12T01:58:49.968Z,8.44
2023-01-12T01:59:49.977Z,8.44
2023-01-12T02:00:49.991Z,8.45
2023-01-12T02:01:49.960Z,8.44
2023-01-12T02:02:49.993Z,8.44
2023-01-12T02:03:49.926Z,8.44
2023-01-12T02:04:49.926Z,8.43
2023-01-12T02:05:49.902Z,8.44
2023-01-12T02:06:49.896Z,8.43
2023-01-12T02:07:49.894Z,8.43
2023-01-12T02:08:49.866Z,8.43
2023-01-12T02:09:49.860Z,8.44
2023-01-12T02:10:49.838Z,8.44
2023-01-12T02:11:49.831Z,8.43
2023-01-12T02:12:49.809Z,8.43
2023-01-12T02:13:49.827Z,8.44
2023-01-12T02:14:52.085Z,8.43
2023-01-12T02:15:49.817Z,8.43
2023-01-12T02:16:49.782Z,8.44
2023-01-12T02:17:49.798Z,8.45
2023-01-12T02:18:49.773Z,8.47
2023-01-12T02:19:49.758Z,8.45
2023-01-12T02:20:49.728Z,8.47
2023-01-12T02:21:49.738Z,8.45
2023-01-12T02:22:49.709Z,8.45
2023-01-12T02:23:49.691Z,8.47
2023-01-12T02:24:49.681Z,8.48
2023-01-12T02:25:49.681Z,8.50
2023-01-12T02:26:49.674Z,8.48
2023-01-12T02:27:49.650Z,8.50
2023-01-12T02:28:49.637Z,8.50
2023-01-12T02:29:49.635Z,8.50
2023-01-12T02:30:49.612Z,8.48
2023-01-12T02:31:49.625Z,8.53
2023-01-12T02:32:49.595Z,8.52
2023-01-12T02:33:49.602Z,8.50
2023-01-12T02:34:49.569Z,8.50
2023-01-12T02:35:49.560Z,8.47
2023-01-12T02:36:49.550Z,8.48
2023-01-12T02:37:49.570Z,8.47
2023-01-12T02:38:49.530Z,8.48
2023-01-12T02:39:49.518Z,8.50
2023-01-12T02:40:49.503Z,8.50
2023-01-12T02:41:49.495Z,8.48
2023-01-12T02:42:49.493Z,8.50
2023-01-12T02:43:49.497Z,8.50
2023-01-12T02:44:49.473Z,8.50
2023-01-12T02:45:49.459Z,8.50
2023-01-12T02:46:49.479Z,8.48
2023-01-12T02:47:49.449Z,8.48
2023-01-12T02:48:49.422Z,8.48
2023-01-12T02:49:49.415Z,8.50
2023-01-12T02:50:49.401Z,8.52
2023-01-12T02:51:49.392Z,8.52
2023-01-12T02:52:49.369Z,8.52
2023-01-12T02:53:49.377Z,8.52
2023-01-12T02:54:49.352Z,8.52
2023-01-12T02:55:49.344Z,8.53
2023-01-12T02:56:49.337Z,8.55
2023-01-12T02:57:49.315Z,8.56
2023-01-12T02:58:49.317Z,8.56
2023-01-12T02:59:49.309Z,8.56
2023-01-12T03:00:49.578Z,8.58
2023-01-12T03:01:49.299Z,8.56
2023-01-12T03:02:49.278Z,8.58
2023-01-12T03:03:49.254Z,8.58
2023-01-12T03:04:49.235Z,8.58
2023-01-12T03:05:49.247Z,8.59
2023-01-12T03:06:49.215Z,8.59
2023-01-12T03:07:49.204Z,8.61
2023-01-12T03:08:49.190Z,8.61
2023-01-12T03:09:49.197Z,8.62
2023-01-12T03:10:49.174Z,8.61
2023-01-12T03:11:49.165Z,8.62
2023-01-12T03:12:49.158Z,8.61
2023-01-12T03:13:49.135Z,8.59
2023-01-12T03:14:49.139Z,8.56
2023-01-12T03:15:49.196Z,8.56
2023-01-12T03:16:49.100Z,8.55
2023-01-12T03:17:49.106Z,8.56
2023-01-12T03:18:49.090Z,8.56
2023-01-12T03:19:49.088Z,8.53
2023-01-12T03:20:49.233Z,8.52
2023-01-12T03:21:49.088Z,8.52
2023-01-12T03:24:16.374Z,8.50
2023-01-12T03:24:21.174Z,8.47
2023-01-12T03:25:21.160Z,8.47
2023-01-12T03:26:21.163Z,8.45
2023-01-12T03:27:21.134Z,8.45
2023-01-12T03:28:21.118Z,8.45
2023-01-12T03:29:21.108Z,8.45
2023-01-12T03:30:21.105Z,8.43
2023-01-12T03:31:21.144Z,8.44
2023-01-12T03:32:21.089Z,8.43
2023-01-12T03:33:21.072Z,8.43
2023-01-12T03:34:21.057Z,8.44
2023-01-12T03:35:21.050Z,8.44
2023-01-12T03:36:21.032Z,8.43
2023-01-12T03:37:21.022Z,8.41
2023-01-12T03:38:21.023Z,8.43
2023-01-12T03:39:20.998Z,8.41
2023-01-12T03:40:20.985Z,8.41
2023-01-12T03:41:20.972Z,8.43
2023-01-12T03:42:20.966Z,8.43
2023-01-12T03:43:20.952Z,8.41
2023-01-12T03:44:20.957Z,8.38
2023-01-12T03:45:20.934Z,8.38
2023-01-12T03:46:20.952Z,8.40
2023-01-12T03:47:20.908Z,8.40
2023-01-12T03:48:20.914Z,8.38
2023-01-12T03:49:20.891Z,8.36
2023-01-12T03:50:20.898Z,8.37
2023-01-12T03:51:20.881Z,8.37
2023-01-12T03:52:20.862Z,8.37
2023-01-12T03:53:20.843Z,8.38
2023-01-12T03:54:20.837Z,8.38
2023-01-12T03:55:20.827Z,8.37
2023-01-12T03:56:20.824Z,8.37
2023-01-12T03:57:20.798Z,8.36
2023-01-12T03:58:20.781Z,8.34
2023-01-12T03:59:20.774Z,8.34
2023-01-12T04:00:20.784Z,8.36
2023-01-12T04:01:20.878Z,8.33
2023-01-12T04:02:20.751Z,8.33
2023-01-12T04:03:20.768Z,8.33
2023-01-12T04:04:20.720Z,8.34
2023-01-12T04:05:20.713Z,8.34
2023-01-12T04:06:20.713Z,8.33
2023-01-12T04:07:20.699Z,8.33
2023-01-12T04:08:20.668Z,8.33
2023-01-12T04:09:20.664Z,8.33
2023-01-12T04:10:20.647Z,8.30
2023-01-12T04:11:20.654Z,8.33
2023-01-12T04:12:20.638Z,8.34
2023-01-12T04:13:20.618Z,8.33
2023-01-12T04:14:20.614Z,8.33
2023-01-12T04:15:20.629Z,8.33
2023-01-12T04:16:20.649Z,8.33
2023-01-12T04:17:20.582Z,8.33
2023-01-12T04:18:20.572Z,8.33
2023-01-12T04:19:20.564Z,8.30
2023-01-12T04:20:20.549Z,8.33
2023-01-12T04:21:20.535Z,8.34
2023-01-12T04:22:20.534Z,8.33
2023-01-12T04:23:20.501Z,8.34
2023-01-12T04:24:20.494Z,8.34
2023-01-12T04:25:20.503Z,8.30
2023-01-12T04:26:20.466Z,8.30
2023-01-12T04:27:20.472Z,8.30
2023-01-12T04:28:20.451Z,8.33
2023-01-12T04:29:20.440Z,8.29
2023-01-12T04:30:20.431Z,8.29
2023-01-12T04:31:20.450Z,8.28
2023-01-12T04:32:20.435Z,8.28
2023-01-12T04:33:20.395Z,8.28
2023-01-12T04:34:20.396Z,8.26
2023-01-12T04:35:20.363Z,8.26
2023-01-12T04:36:20.382Z,8.25
2023-01-12T04:37:20.360Z,8.26
2023-01-12T04:38:20.356Z,8.25
2023-01-12T04:39:20.334Z,8.25
2023-01-12T04:40:20.351Z,8.25
2023-01-12T04:41:20.304Z,8.25
2023-01-12T04:42:20.291Z,8.23
2023-01-12T04:43:20.289Z,8.23
2023-01-12T04:44:20.291Z,8.23
2023-01-12T04:45:20.286Z,8.23
2023-01-12T04:46:20.247Z,8.25
2023-01-12T04:47:20.247Z,8.23
2023-01-12T04:48:20.233Z,8.23
2023-01-12T04:49:20.251Z,8.20
2023-01-12T04:50:20.225Z,8.20
2023-01-12T04:51:20.259Z,8.19
2023-01-12T04:52:20.195Z,8.18
2023-01-12T04:53:20.208Z,8.19
2023-01-12T04:54:20.186Z,8.19
2023-01-12T04:55:20.163Z,8.19
2023-01-12T04:56:20.142Z,8.19
2023-01-12T04:57:20.152Z,8.19
2023-01-12T04:58:20.125Z,8.19
2023-01-12T04:59:20.132Z,8.16
2023-01-12T05:00:20.091Z,8.18
2023-01-12T05:01:20.236Z,8.19
2023-01-12T05:02:20.085Z,8.18
2023-01-12T05:03:20.075Z,8.16
2023-01-12T05:04:20.120Z,8.11
2023-01-12T05:05:20.046Z,8.11
2023-01-12T05:06:20.040Z,8.11
2023-01-12T05:07:20.031Z,8.11
2023-01-12T05:08:20.003Z,8.10
2023-01-12T05:09:20.229Z,8.10
2023-01-12T05:10:19.985Z,8.10
2023-01-12T05:11:19.994Z,8.07
2023-01-12T05:12:19.983Z,8.05
2023-01-12T05:13:19.948Z,8.05
2023-01-12T05:14:19.955Z,8.05
2023-01-12T05:15:19.943Z,8.04
2023-01-12T05:16:19.974Z,8.05
2023-01-12T05:17:19.913Z,8.04
2023-01-12T05:18:19.904Z,8.01
2023-01-12T05:19:19.890Z,8.01
2023-01-12T05:20:19.882Z,8.00
2023-01-12T05:21:19.879Z,8.00
2023-01-12T05:22:19.885Z,8.00
2023-01-12T05:23:19.850Z,7.98
2023-01-12T05:24:19.828Z,8.00
2023-01-12T05:25:19.829Z,7.98
2023-01-12T05:26:19.816Z,7.98
2023-01-12T05:27:19.835Z,7.98
2023-01-12T05:28:19.783Z,8.00
2023-01-12T05:29:19.798Z,7.97
2023-01-12T05:30:19.758Z,7.98
2023-01-12T05:31:19.768Z,8.01
2023-01-12T05:32:19.745Z,7.97
2023-01-12T05:33:19.741Z,7.98
2023-01-12T05:34:19.738Z,7.98
2023-01-12T05:35:19.721Z,8.00
2023-01-12T05:36:19.696Z,8.00
2023-01-12T05:37:19.687Z,7.98
2023-01-12T05:38:19.683Z,7.98
2023-01-12T05:39:19.692Z,8.00
2023-01-12T05:40:19.691Z,7.98
2023-01-12T05:41:19.657Z,7.95
2023-01-12T05:42:19.633Z,7.97
2023-01-12T05:43:19.632Z,7.95
2023-01-12T05:44:19.623Z,7.97
2023-01-12T05:45:19.608Z,7.95
2023-01-12T05:46:19.619Z,7.95
2023-01-12T05:47:19.592Z,7.98
2023-01-12T05:48:19.589Z,7.95
2023-01-12T05:49:19.548Z,7.95
2023-01-12T05:50:19.570Z,7.93
2023-01-12T05:51:19.531Z,7.93
2023-01-12T05:52:19.526Z,7.93
2023-01-12T05:53:19.521Z,7.92
2023-01-12T05:54:19.498Z,7.92
2023-01-12T05:55:19.491Z,7.90
2023-01-12T05:56:19.552Z,7.89
2023-01-12T05:57:19.477Z,7.87
2023-01-12T05:58:19.495Z,7.89
2023-01-12T05:59:19.456Z,7.89
2023-01-12T06:00:19.444Z,7.89
2023-01-12T06:01:19.487Z,7.89
2023-01-12T06:02:19.474Z,7.90
2023-01-12T06:03:19.423Z,7.90
2023-01-12T06:04:19.454Z,7.89
2023-01-12T06:05:19.405Z,7.89
2023-01-12T06:06:19.386Z,7.89
2023-01-12T06:07:19.374Z,7.89
2023-01-12T06:08:19.356Z,7.86
2023-01-12T06:09:19.339Z,7.86
2023-01-12T06:10:19.314Z,7.83
2023-01-12T06:11:19.320Z,7.85
2023-01-12T06:12:19.338Z,7.83
2023-01-12T06:13:19.294Z,7.83
2023-01-12T06:14:19.283Z,7.83
2023-01-12T06:15:19.280Z,7.82
2023-01-12T06:16:19.318Z,7.83
2023-01-12T06:17:19.259Z,7.82
2023-01-12T06:18:19.259Z,7.79
2023-01-12T06:19:19.241Z,7.75
2023-01-12T06:20:19.204Z,7.77
2023-01-12T06:21:19.206Z,7.75
2023-01-12T06:22:19.198Z,7.77
2023-01-12T06:23:19.179Z,7.77
2023-01-12T06:24:19.183Z,7.77
2023-01-12T06:25:19.160Z,7.75
2023-01-12T06:26:19.168Z,7.77
2023-01-12T06:27:19.168Z,7.74
2023-01-12T06:28:19.127Z,7.75
2023-01-12T06:29:19.147Z,7.72
2023-01-12T06:30:19.124Z,7.72
2023-01-12T06:31:19.187Z,7.74
2023-01-12T06:32:19.108Z,7.72
2023-01-12T06:33:19.070Z,7.72
2023-01-12T06:34:19.068Z,7.75
2023-01-12T06:35:19.958Z,7.75
2023-01-12T06:36:19.032Z,7.75
2023-01-12T06:37:19.037Z,7.77
2023-01-12T06:38:19.188Z,7.77
2023-01-12T06:39:18.995Z,7.79
2023-01-12T06:40:18.997Z,7.77
2023-01-12T06:41:19.008Z,7.77
2023-01-12T06:42:18.966Z,7.72
2023-01-12T06:43:19.014Z,7.72
2023-01-12T06:44:18.953Z,7.74
2023-01-12T06:45:18.936Z,7.71
2023-01-12T06:46:18.972Z,7.72
2023-01-12T06:47:18.941Z,7.74
2023-01-12T06:48:18.904Z,7.71
2023-01-12T06:49:18.889Z,7.71
2023-01-12T06:50:18.871Z,7.72
2023-01-12T06:51:18.867Z,7.71
2023-01-12T06:52:18.854Z,7.71
2023-01-12T06:53:18.847Z,7.72
2023-01-12T06:54:19.882Z,7.71
2023-01-12T06:55:18.844Z,7.72
2023-01-12T06:56:18.808Z,7.69
2023-01-12T06:57:18.813Z,7.69
2023-01-12T06:58:18.801Z,7.69
2023-01-12T06:59:18.788Z,7.69
2023-01-12T07:00:18.779Z,7.67
2023-01-12T07:01:18.853Z,7.69
2023-01-12T07:02:18.785Z,7.71
2023-01-12T07:03:18.757Z,7.71
2023-01-12T07:04:18.769Z,7.74
2023-01-12T07:05:18.712Z,7.75
2023-01-12T07:06:18.693Z,7.72
2023-01-12T07:07:18.695Z,7.74
2023-01-12T07:08:18.679Z,7.74
2023-01-12T07:09:18.685Z,7.72
2023-01-12T07:10:18.655Z,7.72
2023-01-12T07:11:18.641Z,7.74
2023-01-12T07:12:18.642Z,7.75
2023-01-12T07:13:18.628Z,7.74
2023-01-12T07:14:18.642Z,7.75
2023-01-12T07:15:18.626Z,7.74
2023-01-12T07:16:18.646Z,7.75
2023-01-12T07:17:18.576Z,7.74
2023-01-12T07:18:18.578Z,7.75
2023-01-12T07:19:18.558Z,7.79
2023-01-12T07:20:18.564Z,7.79
2023-01-12T07:21:18.533Z,7.77
2023-01-12T07:22:18.527Z,7.75
2023-01-12T07:23:18.524Z,7.75
2023-01-12T07:24:18.505Z,7.75
2023-01-12T07:25:18.515Z,7.75
2023-01-12T07:26:18.502Z,7.77
2023-01-12T07:27:18.493Z,7.77
2023-01-12T07:28:18.466Z,7.79
2023-01-12T07:29:18.469Z,7.79
2023-01-12T07:30:19.204Z,7.79
2023-01-12T07:31:18.481Z,7.80
2023-01-12T07:32:18.411Z,7.82
2023-01-12T07:33:18.804Z,7.82
2023-01-12T07:34:18.394Z,7.85
2023-01-12T07:35:18.409Z,7.86
2023-01-12T07:36:18.373Z,7.90
2023-01-12T07:37:18.374Z,7.90
2023-01-12T07:38:18.379Z,7.89
2023-01-12T07:39:18.348Z,7.89
2023-01-12T07:40:18.325Z,7.89
2023-01-12T07:41:18.331Z,7.89
2023-01-12T07:42:18.335Z,7.90
2023-01-12T07:43:18.303Z,7.92
2023-01-12T07:44:18.296Z,7.92
2023-01-12T07:45:18.290Z,7.93
2023-01-12T07:46:18.306Z,7.97
2023-01-12T07:47:18.243Z,7.98
2023-01-12T07:48:18.226Z,8.01
2023-01-12T07:49:18.227Z,8.01
2023-01-12T07:50:18.252Z,8.04
2023-01-12T07:51:18.194Z,8.07
2023-01-12T07:52:18.193Z,8.08
2023-01-12T07:53:18.183Z,8.08
2023-01-12T07:54:18.177Z,8.11
2023-01-12T07:55:18.229Z,8.12
2023-01-12T07:56:18.172Z,8.18
2023-01-12T07:57:18.143Z,8.19
2023-01-12T07:58:18.127Z,8.25
2023-01-12T07:59:18.119Z,8.26
2023-01-12T08:00:18.104Z,8.29
2023-01-12T08:01:18.248Z,8.29
2023-01-12T08:02:18.193Z,8.34
2023-01-12T08:03:18.073Z,8.36
2023-01-12T08:04:18.062Z,8.38
2023-01-12T08:05:18.113Z,8.38
2023-01-12T08:06:18.029Z,8.40
2023-01-12T08:07:18.019Z,8.41
2023-01-12T08:08:18.025Z,8.44
2023-01-12T08:09:18.001Z,8.44
2023-01-12T08:10:18.001Z,8.48
2023-01-12T08:11:17.974Z,8.50
2023-01-12T08:12:17.986Z,8.50
2023-01-12T08:13:17.966Z,8.52
2023-01-12T08:14:17.949Z,8.52
2023-01-12T08:15:17.937Z,8.53
2023-01-12T08:16:18.070Z,8.55
2023-01-12T08:17:17.966Z,8.58
2023-01-12T08:18:17.919Z,8.58
2023-01-12T08:19:17.898Z,8.61
2023-01-12T08:20:17.899Z,8.62
2023-01-12T08:21:17.863Z,8.62
2023-01-12T08:22:17.860Z,8.62
2023-01-12T08:23:17.857Z,8.65
2023-01-12T08:24:17.827Z,8.65
2023-01-12T08:25:17.818Z,8.68
2023-01-12T08:26:17.828Z,8.70
2023-01-12T08:27:17.837Z,8.68
2023-01-12T08:28:17.789Z,8.73
2023-01-12T08:29:17.769Z,8.73
2023-01-12T08:30:17.760Z,8.76
2023-01-12T08:32:17.837Z,8.77
2023-01-12T08:33:17.728Z,8.76
2023-01-12T08:34:17.726Z,8.77
2023-01-12T08:35:17.713Z,8.77
2023-01-12T08:36:17.696Z,8.77
2023-01-12T08:37:17.773Z,8.76
2023-01-12T08:38:17.698Z,8.79
2023-01-12T08:39:17.678Z,8.77
2023-01-12T08:40:17.683Z,8.77
2023-01-12T08:41:17.641Z,8.77
2023-01-12T08:42:17.656Z,8.80
2023-01-12T08:43:17.621Z,8.80
2023-01-12T08:44:17.599Z,8.81
2023-01-12T08:45:17.605Z,8.83
2023-01-12T08:46:17.603Z,8.83
2023-01-12T08:47:17.587Z,8.83
2023-01-12T08:48:17.590Z,8.84
2023-01-12T08:49:17.547Z,8.86
2023-01-12T08:50:17.538Z,8.86
2023-01-12T08:51:17.548Z,8.87
2023-01-12T08:52:17.696Z,8.89
2023-01-12T08:53:17.572Z,8.89
2023-01-12T08:54:17.590Z,8.91
2023-01-12T08:55:17.502Z,8.92
2023-01-12T08:56:17.488Z,8.91
2023-01-12T08:57:17.505Z,8.91
2023-01-12T08:58:17.452Z,8.91
2023-01-12T08:59:17.498Z,8.92
2023-01-12T09:00:17.472Z,8.94
2023-01-12T09:01:17.700Z,8.92
2023-01-12T09:02:17.504Z,8.94
2023-01-12T09:03:17.410Z,8.95
2023-01-12T09:04:17.389Z,8.96
2023-01-12T09:05:17.404Z,8.96
2023-01-12T09:06:17.390Z,8.95
2023-01-12T09:07:17.359Z,8.98
2023-01-12T09:08:17.363Z,8.98
2023-01-12T09:09:17.355Z,8.99
2023-01-12T09:10:17.342Z,9.01
2023-01-12T09:11:17.333Z,8.99
2023-01-12T09:12:17.293Z,9.02
2023-01-12T09:13:17.282Z,9.02
2023-01-12T09:14:17.285Z,9.01
2023-01-12T09:15:17.279Z,9.02
2023-01-12T09:16:17.394Z,9.05
2023-01-12T09:17:17.256Z,9.04
2023-01-12T09:18:19.074Z,9.04
2023-01-12T09:19:17.209Z,9.05
2023-01-12T09:20:17.249Z,9.08
2023-01-12T09:21:17.227Z,9.08
2023-01-12T09:22:17.222Z,9.08
2023-01-12T09:23:17.178Z,9.08
2023-01-12T09:24:17.206Z,9.10
2023-01-12T09:25:17.159Z,9.11
2023-01-12T09:26:17.137Z,9.11
2023-01-12T09:27:17.156Z,9.13
2023-01-12T09:28:17.128Z,9.14
2023-01-12T09:29:17.148Z,9.14
2023-01-12T09:30:17.098Z,9.14
2023-01-12T09:31:18.889Z,9.15
2023-01-12T09:32:20.548Z,9.15
2023-01-12T09:33:17.076Z,9.17
2023-01-12T09:34:17.076Z,9.17
2023-01-12T09:35:17.034Z,9.17
2023-01-12T09:36:17.047Z,9.20
2023-01-12T09:37:17.031Z,9.17
2023-01-12T09:38:17.053Z,9.17
2023-01-12T09:39:27.255Z,9.20
2023-01-12T09:40:16.990Z,9.18
2023-01-12T09:41:16.990Z,9.18
2023-01-12T09:42:16.961Z,9.18
2023-01-12T09:43:16.982Z,9.18
2023-01-12T09:44:16.962Z,9.20
2023-01-12T09:45:16.960Z,9.20
2023-01-12T09:46:16.948Z,9.20
2023-01-12T09:47:16.952Z,9.21
2023-01-12T09:48:16.932Z,9.23
2023-01-12T09:49:16.878Z,9.24
2023-01-12T09:50:16.926Z,9.26
2023-01-12T09:51:16.870Z,9.24
2023-01-12T09:52:16.874Z,9.28
2023-01-12T09:53:16.855Z,9.26
2023-01-12T09:54:16.901Z,9.29
2023-01-12T09:55:16.835Z,9.29
2023-01-12T09:56:16.832Z,9.29
2023-01-12T09:57:28.361Z,9.31
2023-01-12T09:58:16.803Z,9.32
2023-01-12T09:59:18.555Z,9.35
2023-01-12T10:00:16.777Z,9.33
2023-01-12T10:01:28.297Z,9.33
2023-01-12T10:02:17.008Z,9.36
2023-01-12T10:03:16.804Z,9.36
2023-01-12T10:04:16.721Z,9.36
2023-01-12T10:05:17.152Z,9.38
2023-01-12T10:06:16.701Z,9.38
2023-01-12T10:07:16.689Z,9.39
2023-01-12T10:08:16.672Z,9.38
2023-01-12T10:09:16.660Z,9.40
2023-01-12T10:10:16.685Z,9.42
2023-01-12T10:11:16.668Z,9.42
2023-01-12T10:12:16.642Z,9.42
2023-01-12T10:13:16.615Z,9.40
2023-01-12T10:14:16.633Z,9.43
2023-01-12T10:15:16.619Z,9.46
2023-01-12T10:16:16.656Z,9.47
2023-01-12T10:17:16.579Z,9.48
2023-01-12T10:18:16.580Z,9.47
2023-01-12T10:19:16.555Z,9.50
2023-01-12T10:20:18.257Z,9.50
2023-01-12T10:21:16.552Z,9.51
2023-01-12T10:22:16.544Z,9.53
2023-01-12T10:23:16.542Z,9.53
2023-01-12T10:24:16.488Z,9.54
2023-01-12T10:25:16.495Z,9.54
2023-01-12T10:26:16.490Z,9.54
2023-01-12T10:27:16.473Z,9.54
2023-01-12T10:28:16.460Z,9.56
2023-01-12T10:29:17.137Z,9.56
2023-01-12T10:30:16.427Z,9.56
2023-01-12T10:31:16.443Z,9.56
2023-01-12T10:32:17.383Z,9.58
2023-01-12T10:33:16.404Z,9.60
2023-01-12T10:34:16.401Z,9.61
2023-01-12T10:35:16.382Z,9.64
2023-01-12T10:36:16.358Z,9.61
2023-01-12T10:37:16.350Z,9.64
2023-01-12T10:38:16.347Z,9.66
2023-01-12T10:39:16.327Z,9.65
2023-01-12T10:40:16.325Z,9.66
2023-01-12T10:41:16.319Z,9.66
2023-01-12T10:42:16.303Z,9.68
2023-01-12T10:43:20.028Z,9.68
2023-01-12T10:44:16.301Z,9.68
2023-01-12T10:45:16.340Z,9.69
2023-01-12T10:46:16.308Z,9.69
2023-01-12T10:47:16.249Z,9.68
2023-01-12T10:48:16.241Z,9.68
2023-01-12T10:49:16.240Z,9.68
2023-01-12T10:50:16.229Z,9.66
2023-01-12T10:51:16.199Z,9.68
2023-01-12T10:52:16.202Z,9.68
2023-01-12T10:53:16.201Z,9.69
2023-01-12T10:54:16.158Z,9.69
2023-01-12T10:55:16.195Z,9.69
2023-01-12T10:56:16.141Z,9.71
2023-01-12T10:57:16.140Z,9.71
2023-01-12T10:58:16.118Z,9.74
2023-01-12T10:59:16.161Z,9.74
2023-01-12T11:00:16.099Z,9.72
2023-01-12T11:01:16.169Z,9.72
2023-01-12T11:02:16.413Z,9.72
2023-01-12T11:03:16.066Z,9.71
2023-01-12T11:04:16.061Z,9.72
2023-01-12T11:05:16.087Z,9.72
2023-01-12T11:06:16.047Z,9.71
2023-01-12T11:07:16.067Z,9.72
2023-01-12T11:08:16.005Z,9.72
2023-01-12T11:09:15.999Z,9.71
2023-01-12T11:10:15.996Z,9.71
2023-01-12T11:11:15.971Z,9.72
2023-01-12T11:12:15.970Z,9.72
2023-01-12T11:13:15.983Z,9.71
2023-01-12T11:14:22.439Z,9.72
2023-01-12T11:15:15.951Z,9.74
2023-01-12T11:16:16.127Z,9.74
2023-01-12T11:17:15.944Z,9.75
2023-01-12T11:18:15.884Z,9.76
2023-01-12T11:19:15.903Z,9.75
2023-01-12T11:20:15.891Z,9.76
2023-01-12T11:21:15.882Z,9.78
2023-01-12T11:22:15.866Z,9.76
2023-01-12T11:23:15.867Z,9.78
2023-01-12T11:24:15.836Z,9.79
2023-01-12T11:25:15.831Z,9.78
2023-01-12T11:26:15.804Z,9.78
2023-01-12T11:27:15.790Z,9.81
2023-01-12T11:28:15.795Z,9.83
2023-01-12T11:29:15.783Z,9.83
2023-01-12T11:30:15.783Z,9.81
2023-01-12T11:31:15.763Z,9.81
2023-01-12T11:32:15.769Z,9.81
2023-01-12T11:33:15.767Z,9.83
2023-01-12T11:34:15.726Z,9.83
2023-01-12T11:35:15.745Z,9.83
2023-01-12T11:36:15.692Z,9.84
2023-01-12T11:37:15.709Z,9.86
2023-01-12T11:38:15.679Z,9.84
2023-01-12T11:39:15.679Z,9.86
2023-01-12T11:40:15.653Z,9.86
2023-01-12T11:41:16.388Z,9.86
2023-01-12T11:42:15.616Z,9.87
2023-01-12T11:43:15.639Z,9.87
2023-01-12T11:44:15.613Z,9.87
2023-01-12T11:45:15.601Z,9.89
2023-01-12T11:46:15.640Z,9.90
2023-01-12T11:47:15.624Z,9.90
2023-01-12T11:48:15.565Z,9.90
2023-01-12T11:49:15.541Z,9.90
2023-01-12T11:50:15.544Z,9.90
2023-01-12T11:51:15.538Z,9.91
2023-01-12T11:52:15.564Z,9.90
2023-01-12T11:53:15.506Z,9.90
2023-01-12T11:54:15.512Z,9.91
2023-01-12T11:55:15.604Z,9.91
2023-01-12T11:56:15.488Z,9.91
2023-01-12T11:57:15.486Z,9.90
2023-01-12T11:58:15.453Z,9.91
2023-01-12T11:59:15.508Z,9.90
2023-01-12T12:00:15.450Z,9.89
2023-01-12T12:01:15.438Z,9.90
2023-01-12T12:02:15.467Z,9.90
2023-01-12T12:03:15.464Z,9.90
2023-01-12T12:04:15.432Z,9.91
2023-01-12T12:05:15.409Z,9.91
2023-01-12T12:06:15.370Z,9.93
2023-01-12T12:07:15.366Z,9.91
2023-01-12T12:08:15.340Z,9.94
2023-01-12T12:09:15.335Z,9.96
2023-01-12T12:10:15.435Z,9.97
2023-01-12T12:11:15.343Z,9.96
2023-01-12T12:12:15.299Z,9.97
2023-01-12T12:13:15.296Z,9.97
2023-01-12T12:14:15.268Z,9.99
2023-01-12T12:15:15.264Z,9.99
2023-01-12T12:16:15.345Z,10.01
2023-01-12T12:17:15.236Z,10.01
2023-01-12T12:18:15.231Z,10.02
2023-01-12T12:19:15.246Z,10.02
2023-01-12T12:20:15.239Z,10.02
2023-01-12T12:21:15.191Z,10.02
2023-01-12T12:22:15.179Z,10.02
2023-01-12T12:23:15.173Z,10.02
2023-01-12T12:24:15.178Z,10.04
2023-01-12T12:25:15.147Z,10.05
2023-01-12T12:26:15.142Z,10.05
2023-01-12T12:27:15.129Z,10.04
2023-01-12T12:28:15.153Z,10.02
2023-01-12T12:29:15.127Z,10.05
2023-01-12T12:30:15.127Z,10.07
2023-01-12T12:31:15.090Z,10.05
2023-01-12T12:32:15.092Z,10.07
2023-01-12T12:33:15.070Z,10.07
2023-01-12T12:34:15.062Z,10.05
2023-01-12T12:35:15.033Z,10.07
2023-01-12T12:36:15.030Z,10.05
2023-01-12T12:37:15.059Z,10.05
2023-01-12T12:38:15.005Z,10.07
2023-01-12T12:39:15.013Z,10.05
2023-01-12T12:40:14.989Z,10.05
2023-01-12T12:41:14.994Z,10.04
2023-01-12T12:42:14.969Z,10.07
2023-01-12T12:43:14.962Z,10.08
2023-01-12T12:44:14.950Z,10.08
2023-01-12T12:45:14.945Z,10.09
2023-01-12T12:46:14.962Z,10.08
2023-01-12T12:47:14.903Z,10.08
2023-01-12T12:48:14.937Z,10.08
2023-01-12T12:49:14.897Z,10.08
2023-01-12T12:50:14.865Z,10.07
2023-01-12T12:51:14.910Z,10.07
2023-01-12T12:52:14.865Z,10.05
2023-01-12T12:53:14.869Z,10.07
2023-01-12T12:54:14.823Z,10.05
2023-01-12T12:55:14.841Z,10.05
2023-01-12T12:56:14.816Z,10.05
2023-01-12T12:57:14.800Z,10.05
2023-01-12T12:58:14.779Z,10.08
2023-01-12T12:59:14.761Z,10.08
2023-01-12T13:00:14.826Z,10.09
2023-01-12T13:01:14.846Z,10.07
2023-01-12T13:02:14.859Z,10.09
2023-01-12T13:03:14.777Z,10.08
2023-01-12T13:04:14.718Z,10.08
2023-01-12T13:05:14.700Z,10.09
2023-01-12T13:06:14.688Z,10.07
2023-01-12T13:07:14.692Z,10.09
2023-01-12T13:08:14.676Z,10.08
2023-01-12T13:09:14.680Z,10.09
2023-01-12T13:10:14.658Z,10.08
2023-01-12T13:11:14.647Z,10.09
2023-01-12T13:12:14.651Z,10.08
2023-01-12T13:13:14.632Z,10.07
2023-01-12T13:14:14.631Z,10.08
2023-01-12T13:15:14.592Z,10.07
2023-01-12T13:16:14.634Z,10.09
2023-01-12T13:17:14.572Z,10.05
2023-01-12T13:18:14.576Z,10.07
2023-01-12T13:19:14.565Z,10.08